Time;durP1;ratioP1;P1;durP2;ratioP2;P2;SDS_P1;SDS_P2;PMS_P1;PMS_P2;Temp;Humidity;BMP_temperature;BMP_pressure;BME280_temperature;BME280_humidity;BME280_pressure;Samples;Min_cycle;Max_cycle;Signal;HPM_P1;HPM_P2
2023/09/17 00:01:24;;;;;;;694.92;668.17;;;;;;;;;;5083729;22;20220;-92
2023/09/17 00:04:00;;;;;;;706.03;679.08;;;;;;;;;;5038207;28;20206;-92
2023/09/17 00:06:29;;;;;;;698.30;671.75;;;;;;;;;;5037721;28;20184;-92
2023/09/17 00:08:55;;;;;;;667.80;642.88;;;;;;;;;;5036158;28;20238;-92
2023/09/17 00:11:21;;;;;;;674.58;649.08;;;;;;;;;;5037519;28;20218;-93
2023/09/17 00:13:58;;;;;;;;;;;;;;;;;;;;;
2023/09/17 00:16:30;;;;;;;687.30;661.08;;;;;;;;;;5037055;28;20247;-92
2023/09/17 00:19:04;;;;;;;674.85;649.30;;;;;;;;;;5037016;28;20188;-93
2023/09/17 00:21:29;;;;;;;667.03;642.10;;;;;;;;;;5037565;28;20252;-92
2023/09/17 00:24:08;;;;;;;646.42;622.72;;;;;;;;;;5037391;28;20280;-92
2023/09/17 00:26:36;;;;;;;649.47;625.75;;;;;;;;;;5036942;28;20909;-92
2023/09/17 00:29:05;;;;;;;666.47;641.38;;;;;;;;;;5015805;28;20193;-93
2023/09/17 00:31:31;;;;;;;660.20;635.40;;;;;;;;;;5020636;28;20195;-92
2023/09/17 00:34:00;;;;;;;652.13;627.90;;;;;;;;;;5038592;28;20339;-92
2023/09/17 00:36:35;;;;;;;658.10;633.58;;;;;;;;;;5021266;28;20204;-94
2023/09/17 00:39:11;;;;;;;646.78;623.13;;;;;;;;;;5020090;28;20191;-92
2023/09/17 00:41:39;;;;;;;620.63;598.80;;;;;;;;;;5020274;28;20190;-92
2023/09/17 00:44:05;;;;;;;623.55;600.97;;;;;;;;;;5028724;28;20226;-92
2023/09/17 00:46:32;;;;;;;640.88;617.40;;;;;;;;;;5021322;28;20185;-93
2023/09/17 00:49:13;;;;;;;624.70;602.10;;;;;;;;;;5038527;28;20212;-92
2023/09/17 00:51:52;;;;;;;640.10;616.97;;;;;;;;;;5039074;28;20173;-93
2023/09/17 00:54:25;;;;;;;623.13;601.03;;;;;;;;;;5021307;28;20208;-93
2023/09/17 00:56:51;;;;;;;608.95;587.63;;;;;;;;;;5021271;28;20208;-92
2023/09/17 00:59:17;;;;;;;603.97;582.13;;;;;;;;;;5024216;28;20223;-92
2023/09/17 01:01:44;;;;;;;612.38;590.40;;;;;;;;;;5042573;28;20213;-92
2023/09/17 01:04:16;;;;;;;608.70;587.03;;;;;;;;;;5025688;28;20262;-93
2023/09/17 01:06:43;;;;;;;609.53;587.88;;;;;;;;;;5034551;28;20181;-91
2023/09/17 01:09:13;;;;;;;619.83;597.95;;;;;;;;;;5041705;28;20180;-92
2023/09/17 01:11:47;;;;;;;632.78;609.80;;;;;;;;;;5041348;28;20180;-93
2023/09/17 01:14:23;;;;;;;630.25;607.83;;;;;;;;;;5022955;28;20626;-93
2023/09/17 01:16:49;;;;;;;617.05;595.30;;;;;;;;;;5023951;28;20193;-93
2023/09/17 01:19:36;;;;;;;631.95;609.45;;;;;;;;;;5032274;28;20195;-91
2023/09/17 01:22:06;;;;;;;610.47;588.55;;;;;;;;;;5040415;28;20187;-92
2023/09/17 01:24:36;;;;;;;640.55;617.13;;;;;;;;;;5011445;28;20205;-92
2023/09/17 01:27:18;;;;;;;623.05;600.63;;;;;;;;;;5026876;28;20198;-93
2023/09/17 01:29:51;;;;;;;632.92;610.00;;;;;;;;;;5029385;28;20189;-92
2023/09/17 01:32:17;;;;;;;617.38;595.47;;;;;;;;;;5056759;22;20176;-94
2023/09/17 01:34:44;;;;;;;597.83;576.88;;;;;;;;;;5057984;28;20218;-93
2023/09/17 01:37:32;;;;;;;589.42;568.95;;;;;;;;;;5061696;28;20191;-92
2023/09/17 01:40:12;;;;;;;613.58;591.33;;;;;;;;;;5041691;28;20200;-92
2023/09/17 01:42:39;;;;;;;610.75;588.95;;;;;;;;;;5036060;28;20219;-93
2023/09/17 01:45:07;;;;;;;618.67;596.45;;;;;;;;;;5044758;28;20220;-94
2023/09/17 01:47:46;;;;;;;624.30;601.65;;;;;;;;;;5056394;28;20248;-93
2023/09/17 01:50:16;;;;;;;617.28;595.55;;;;;;;;;;5062709;28;20182;-93
2023/09/17 01:52:44;;;;;;;633.47;610.45;;;;;;;;;;5052941;28;20187;-93
2023/09/17 01:55:10;;;;;;;615.25;593.03;;;;;;;;;;5058839;28;20199;-92
2023/09/17 01:57:40;;;;;;;614.88;592.90;;;;;;;;;;5056249;28;20204;-95
2023/09/17 02:00:16;;;;;;;609.05;587.40;;;;;;;;;;5061919;28;20211;-93
2023/09/17 02:02:49;;;;;;;598.00;577.03;;;;;;;;;;5056410;28;20192;-91
2023/09/17 02:05:16;;;;;;;600.65;579.53;;;;;;;;;;5046175;28;20229;-93
2023/09/17 02:07:43;;;;;;;601.55;580.60;;;;;;;;;;5029749;28;20181;-92
2023/09/17 02:10:17;;;;;;;602.83;581.30;;;;;;;;;;5055057;28;20216;-93
2023/09/17 02:12:43;;;;;;;607.85;585.92;;;;;;;;;;5056663;28;20208;-93
2023/09/17 02:15:12;;;;;;;606.10;584.85;;;;;;;;;;5031165;28;20219;-93
2023/09/17 02:17:39;;;;;;;604.92;583.45;;;;;;;;;;5052076;28;20666;-92
2023/09/17 02:20:10;;;;;;;592.53;571.47;;;;;;;;;;5051097;28;20180;-93
2023/09/17 02:22:39;;;;;;;607.25;585.63;;;;;;;;;;5046593;28;20188;-93
2023/09/17 02:25:21;;;;;;;607.50;585.90;;;;;;;;;;5043101;28;20216;-93
2023/09/17 02:27:50;;;;;;;587.63;566.67;;;;;;;;;;5035996;28;20184;-93
2023/09/17 02:30:16;;;;;;;588.30;568.05;;;;;;;;;;5046912;28;20192;-93
2023/09/17 02:32:43;;;;;;;576.63;556.72;;;;;;;;;;5046903;28;20212;-92
2023/09/17 02:35:10;;;;;;;590.10;569.60;;;;;;;;;;5036826;28;20212;-92
2023/09/17 02:37:36;;;;;;;603.72;582.42;;;;;;;;;;5058130;28;20200;-91
2023/09/17 02:40:04;;;;;;;603.10;581.63;;;;;;;;;;5056648;28;20185;-93
2023/09/17 02:42:30;;;;;;;596.97;576.10;;;;;;;;;;5045034;28;20260;-92
2023/09/17 02:44:56;;;;;;;591.67;570.92;;;;;;;;;;5043816;28;20235;-92
2023/09/17 02:47:28;;;;;;;584.92;564.67;;;;;;;;;;5061669;28;20202;-93
2023/09/17 02:49:55;;;;;;;574.47;554.95;;;;;;;;;;5037663;28;20666;-92
2023/09/17 02:52:21;;;;;;;585.70;565.33;;;;;;;;;;5041331;28;20188;-92
2023/09/17 02:54:47;;;;;;;591.70;571.05;;;;;;;;;;5034517;28;20230;-92
2023/09/17 02:57:13;;;;;;;585.85;565.50;;;;;;;;;;5043507;28;20215;-92
2023/09/17 02:59:39;;;;;;;580.50;560.55;;;;;;;;;;5043332;28;20227;-93
2023/09/17 03:02:05;;;;;;;588.90;568.50;;;;;;;;;;5061582;28;20906;-93
2023/09/17 03:04:33;;;;;;;597.25;576.95;;;;;;;;;;5050464;28;20232;-92
2023/09/17 03:07:08;;;;;;;572.13;552.22;;;;;;;;;;5061062;28;20176;-92
2023/09/17 03:09:34;;;;;;;578.35;558.15;;;;;;;;;;5055508;28;21236;-92
2023/09/17 03:12:07;;;;;;;559.63;540.33;;;;;;;;;;5061354;28;20176;-92
2023/09/17 03:14:33;;;;;;;565.83;546.35;;;;;;;;;;5040678;28;20240;-92
2023/09/17 03:17:00;;;;;;;578.85;558.53;;;;;;;;;;5025525;28;20659;-92
2023/09/17 03:19:26;;;;;;;559.95;540.97;;;;;;;;;;5059798;28;20275;-93
2023/09/17 03:22:06;;;;;;;567.47;548.00;;;;;;;;;;5059557;28;20187;-93
2023/09/17 03:24:37;;;;;;;560.78;541.75;;;;;;;;;;5043517;28;20343;-92
2023/09/17 03:27:15;;;;;;;547.97;529.50;;;;;;;;;;5028583;28;20215;-92
2023/09/17 03:29:41;;;;;;;543.17;525.03;;;;;;;;;;5039367;28;20210;-92
2023/09/17 03:32:10;;;;;;;553.10;534.42;;;;;;;;;;5060577;28;20205;-92
2023/09/17 03:34:39;;;;;;;557.67;538.47;;;;;;;;;;5033240;28;20232;-92
2023/09/17 03:37:05;;;;;;;536.95;519.30;;;;;;;;;;5042523;28;20271;-93
2023/09/17 03:39:31;;;;;;;546.63;528.15;;;;;;;;;;5052529;28;20180;-93
2023/09/17 03:41:57;;;;;;;540.60;522.53;;;;;;;;;;5059508;28;20188;-92
2023/09/17 03:44:29;;;;;;;533.05;515.25;;;;;;;;;;5060615;28;20206;-92
2023/09/17 03:46:55;;;;;;;528.33;510.88;;;;;;;;;;5042145;28;20195;-93
2023/09/17 03:49:24;;;;;;;529.20;511.45;;;;;;;;;;5060500;28;20188;-94
2023/09/17 03:51:50;;;;;;;525.63;508.13;;;;;;;;;;5061089;28;20180;-94
2023/09/17 03:54:19;;;;;;;522.70;505.42;;;;;;;;;;5060879;28;20212;-91
2023/09/17 03:56:48;;;;;;;543.05;524.90;;;;;;;;;;5060748;28;20192;-92
2023/09/17 03:59:18;;;;;;;549.20;530.60;;;;;;;;;;5045755;28;20209;-92
2023/09/17 04:01:44;;;;;;;569.42;550.03;;;;;;;;;;5031519;28;20192;-92
2023/09/17 04:04:13;;;;;;;534.38;516.40;;;;;;;;;;5055390;28;20220;-93
2023/09/17 04:06:45;;;;;;;536.25;518.42;;;;;;;;;;5038617;28;20171;-90
2023/09/17 04:09:13;;;;;;;525.97;508.45;;;;;;;;;;5061745;28;20188;-91
2023/09/17 04:11:43;;;;;;;538.47;520.28;;;;;;;;;;5061445;28;20165;-92
2023/09/17 04:14:12;;;;;;;538.50;520.45;;;;;;;;;;5040295;28;20216;-91
2023/09/17 04:16:38;;;;;;;535.28;517.55;;;;;;;;;;5059300;28;20214;-93
2023/09/17 04:19:07;;;;;;;526.28;509.00;;;;;;;;;;5060614;28;20188;-92
2023/09/17 04:21:37;;;;;;;520.75;503.75;;;;;;;;;;5043163;28;20189;-93
2023/09/17 04:24:06;;;;;;;509.85;492.85;;;;;;;;;;5056840;28;20224;-94
2023/09/17 04:26:38;;;;;;;516.45;499.33;;;;;;;;;;5059198;28;20176;-92
2023/09/17 04:29:07;;;;;;;506.90;490.17;;;;;;;;;;5033784;28;20191;-94
2023/09/17 04:31:36;;;;;;;518.13;501.08;;;;;;;;;;5041763;28;20215;-92
2023/09/17 04:34:08;;;;;;;522.70;505.40;;;;;;;;;;5038460;28;20224;-93
2023/09/17 04:36:37;;;;;;;515.05;497.67;;;;;;;;;;5037563;28;20216;-92
2023/09/17 04:39:03;;;;;;;523.33;505.50;;;;;;;;;;5042276;28;20268;-92
2023/09/17 04:41:29;;;;;;;534.90;517.28;;;;;;;;;;5047247;28;20180;-93
2023/09/17 04:43:55;;;;;;;547.97;529.40;;;;;;;;;;5062802;28;20227;-92
2023/09/17 04:46:22;;;;;;;544.83;526.38;;;;;;;;;;5046176;28;20184;-93
2023/09/17 04:48:48;;;;;;;547.78;528.85;;;;;;;;;;5044981;28;20211;-92
2023/09/17 04:51:16;;;;;;;546.78;528.60;;;;;;;;;;5062882;28;20180;-91
2023/09/17 04:53:43;;;;;;;534.78;516.83;;;;;;;;;;5061964;28;20200;-91
2023/09/17 04:56:09;;;;;;;540.55;522.53;;;;;;;;;;5059563;28;20188;-93
2023/09/17 04:58:35;;;;;;;532.80;515.17;;;;;;;;;;5064267;28;20220;-93
2023/09/17 05:01:12;;;;;;;543.38;524.90;;;;;;;;;;5043615;28;20192;-93
2023/09/17 05:03:42;;;;;;;505.67;488.98;;;;;;;;;;5057592;28;20203;-94
2023/09/17 05:06:12;;;;;;;517.42;500.52;;;;;;;;;;5060287;28;20211;-93
2023/09/17 05:08:39;;;;;;;505.50;488.85;;;;;;;;;;5058616;28;20180;-93
2023/09/17 05:11:05;;;;;;;508.13;491.65;;;;;;;;;;5036198;28;20188;-92
2023/09/17 05:13:31;;;;;;;499.58;483.30;;;;;;;;;;5055308;28;20210;-92
2023/09/17 05:15:58;;;;;;;500.15;483.75;;;;;;;;;;5056532;28;20189;-94
2023/09/17 05:18:24;;;;;;;502.10;485.70;;;;;;;;;;5042937;28;20222;-91
2023/09/17 05:20:53;;;;;;;530.88;513.30;;;;;;;;;;5050729;28;20200;-92
2023/09/17 05:23:23;;;;;;;483.67;468.35;;;;;;;;;;5068085;28;20223;-92
2023/09/17 05:25:52;;;;;;;465.65;451.10;;;;;;;;;;5042929;28;20341;-92
2023/09/17 05:28:20;;;;;;;452.58;438.42;;;;;;;;;;5066406;28;20204;-91
2023/09/17 05:30:46;;;;;;;453.10;439.08;;;;;;;;;;5070238;28;20253;-93
2023/09/17 05:33:12;;;;;;;471.05;456.38;;;;;;;;;;5041581;28;20563;-93
2023/09/17 05:35:38;;;;;;;462.42;447.65;;;;;;;;;;5063926;28;20181;-91
2023/09/17 05:38:08;;;;;;;498.33;481.92;;;;;;;;;;5063536;28;20245;-93
2023/09/17 05:40:34;;;;;;;488.30;472.70;;;;;;;;;;5064270;28;20798;-92
2023/09/17 05:43:01;;;;;;;497.08;480.95;;;;;;;;;;5052537;28;20181;-92
2023/09/17 05:45:27;;;;;;;505.58;488.92;;;;;;;;;;5061960;28;20766;-93
2023/09/17 05:47:53;;;;;;;507.70;491.13;;;;;;;;;;5051009;28;20232;-93
2023/09/17 05:50:22;;;;;;;498.45;482.10;;;;;;;;;;5060363;28;20191;-90
2023/09/17 05:52:49;;;;;;;500.15;483.65;;;;;;;;;;5069013;28;20200;-91
2023/09/17 05:55:15;;;;;;;510.58;493.63;;;;;;;;;;5043446;28;20188;-92
2023/09/17 05:57:42;;;;;;;496.48;480.40;;;;;;;;;;5060517;28;20195;-93
2023/09/17 06:00:12;;;;;;;498.67;482.35;;;;;;;;;;5042111;28;20256;-92
2023/09/17 06:02:45;;;;;;;507.92;491.30;;;;;;;;;;5060373;28;20192;-93
2023/09/17 06:05:23;;;;;;;493.23;477.20;;;;;;;;;;5042018;28;20225;-93
2023/09/17 06:07:49;;;;;;;487.23;471.38;;;;;;;;;;5039663;28;20191;-93
2023/09/17 06:10:15;;;;;;;488.65;472.55;;;;;;;;;;5041473;28;20183;-92
2023/09/17 06:12:42;;;;;;;488.67;472.95;;;;;;;;;;5060786;28;20186;-93
2023/09/17 06:15:08;;;;;;;507.40;490.88;;;;;;;;;;5061036;28;20594;-93
2023/09/17 06:17:34;;;;;;;484.20;468.58;;;;;;;;;;5041951;28;20207;-88
2023/09/17 06:20:01;;;;;;;504.98;488.45;;;;;;;;;;5057555;28;20547;-89
2023/09/17 06:22:27;;;;;;;507.60;491.10;;;;;;;;;;5040397;28;20250;-89
2023/09/17 06:24:53;;;;;;;498.77;482.63;;;;;;;;;;5033149;28;20215;-90
2023/09/17 06:27:19;;;;;;;521.47;503.98;;;;;;;;;;5056264;28;20188;-88
2023/09/17 06:29:45;;;;;;;528.45;511.27;;;;;;;;;;5039172;28;20725;-89
2023/09/17 06:32:11;;;;;;;539.47;521.60;;;;;;;;;;5058136;28;20697;-90
2023/09/17 06:34:37;;;;;;;539.25;521.08;;;;;;;;;;5057134;28;20220;-89
2023/09/17 06:37:04;;;;;;;546.42;527.83;;;;;;;;;;5054086;28;20188;-89
2023/09/17 06:39:57;;;;;;;551.13;532.80;;;;;;;;;;5069101;28;20204;-94
2023/09/17 06:42:26;;;;;;;506.52;489.98;;;;;;;;;;5032951;28;20227;-95
2023/09/17 06:45:01;;;;;;;534.20;516.63;;;;;;;;;;5041437;28;20222;-94
2023/09/17 06:47:27;;;;;;;555.85;537.30;;;;;;;;;;5085010;22;20300;-93
2023/09/17 06:49:53;;;;;;;554.90;536.13;;;;;;;;;;5042431;28;20236;-94
2023/09/17 06:52:43;;;;;;;556.40;537.55;;;;;;;;;;5537886;22;20313;-94
2023/09/17 06:55:12;;;;;;;526.65;509.23;;;;;;;;;;5300795;22;20250;-93
2023/09/17 06:57:47;;;;;;;518.95;501.83;;;;;;;;;;5039255;28;20717;-92
2023/09/17 07:00:18;;;;;;;517.20;500.02;;;;;;;;;;5031804;28;20192;-93
2023/09/17 07:02:44;;;;;;;506.05;489.65;;;;;;;;;;5036091;28;20179;-92
2023/09/17 07:05:31;;;;;;;514.05;497.27;;;;;;;;;;5051419;28;20228;-93
2023/09/17 07:10:56;;;;;;;529.67;512.05;;;;;;;;;;5051749;28;20186;-91
2023/09/17 07:13:25;;;;;;;552.88;534.15;;;;;;;;;;5051746;28;20183;-93
2023/09/17 07:15:54;;;;;;;517.38;500.75;;;;;;;;;;5051911;28;20176;-92
2023/09/17 07:18:20;;;;;;;559.25;540.47;;;;;;;;;;5051169;28;20201;-92
2023/09/17 07:20:47;;;;;;;605.88;584.67;;;;;;;;;;5070444;28;20176;-94
2023/09/17 07:23:13;;;;;;;583.08;562.38;;;;;;;;;;5071915;28;20199;-92
2023/09/17 07:25:39;;;;;;;545.83;527.17;;;;;;;;;;5069942;28;20178;-93
2023/09/17 07:28:09;;;;;;;596.60;575.55;;;;;;;;;;5072065;28;20231;-92
2023/09/17 07:30:36;;;;;;;583.13;562.65;;;;;;;;;;5070575;28;20201;-93
2023/09/17 07:33:03;;;;;;;567.80;548.20;;;;;;;;;;5059939;28;20203;-94
2023/09/17 07:35:30;;;;;;;553.28;534.22;;;;;;;;;;5074447;28;20168;-92
2023/09/17 07:37:57;;;;;;;537.42;519.63;;;;;;;;;;5075148;28;20202;-92
2023/09/17 07:40:24;;;;;;;522.92;505.80;;;;;;;;;;5058741;28;20223;-91
2023/09/17 07:43:06;;;;;;;539.10;521.25;;;;;;;;;;5074176;28;20165;-92
2023/09/17 07:48:08;;;;;;;561.70;542.53;;;;;;;;;;4632859;26;20265;-93
2023/09/17 07:50:34;;;;;;;584.45;564.17;;;;;;;;;;5007565;28;20193;-92
2023/09/17 07:53:06;;;;;;;583.55;563.33;;;;;;;;;;5010611;28;20196;-91
2023/09/17 07:55:32;;;;;;;534.65;517.17;;;;;;;;;;5003084;28;20194;-92
2023/09/17 07:57:58;;;;;;;557.20;538.72;;;;;;;;;;5018288;28;20186;-93
2023/09/17 08:00:32;;;;;;;571.47;552.17;;;;;;;;;;5006248;28;20173;-94
2023/09/17 08:03:01;;;;;;;581.17;561.88;;;;;;;;;;5008566;28;20245;-93
2023/09/17 08:05:33;;;;;;;577.95;558.42;;;;;;;;;;5021315;28;20238;-94
2023/09/17 08:08:07;;;;;;;571.58;552.33;;;;;;;;;;5025948;28;20194;-92
2023/09/17 08:10:34;;;;;;;583.15;563.53;;;;;;;;;;5110584;23;20226;-94
2023/09/17 08:13:01;;;;;;;603.90;582.88;;;;;;;;;;5075977;28;20187;-94
2023/09/17 08:15:29;;;;;;;623.60;601.80;;;;;;;;;;5072884;28;20183;-92
2023/09/17 08:17:56;;;;;;;641.55;618.35;;;;;;;;;;5070960;28;20188;-93
2023/09/17 08:20:22;;;;;;;636.35;613.40;;;;;;;;;;5051999;28;20215;-95
2023/09/17 08:22:51;;;;;;;619.97;598.08;;;;;;;;;;5033736;28;20185;-92
2023/09/17 08:25:18;;;;;;;630.47;607.55;;;;;;;;;;5033461;28;20235;-95
2023/09/17 08:27:48;;;;;;;592.70;572.22;;;;;;;;;;5051697;28;20197;-93
2023/09/17 08:30:15;;;;;;;632.40;609.88;;;;;;;;;;5050915;28;20271;-94
2023/09/17 08:32:45;;;;;;;599.05;578.33;;;;;;;;;;5053389;28;20169;-93
2023/09/17 08:35:14;;;;;;;618.38;596.72;;;;;;;;;;5055039;28;20557;-94
2023/09/17 08:37:49;;;;;;;621.65;599.65;;;;;;;;;;5036428;28;20196;-93
2023/09/17 08:40:27;;;;;;;619.70;597.78;;;;;;;;;;5057678;28;20157;-94
2023/09/17 08:43:02;;;;;;;620.63;598.83;;;;;;;;;;5055950;28;20195;-93
2023/09/17 08:45:33;;;;;;;654.00;630.28;;;;;;;;;;5037388;28;20274;-94
2023/09/17 08:48:22;;;;;;;617.55;595.33;;;;;;;;;;5053379;28;20192;-93
2023/09/17 08:50:50;;;;;;;660.95;636.45;;;;;;;;;;5044451;28;20181;-92
2023/09/17 08:53:18;;;;;;;651.50;627.92;;;;;;;;;;5040864;28;20654;-92
2023/09/17 08:55:48;;;;;;;682.75;657.47;;;;;;;;;;5046141;28;20264;-94
2023/09/17 08:58:24;;;;;;;691.55;665.58;;;;;;;;;;5056103;28;20209;-95
2023/09/17 09:00:51;;;;;;;736.92;707.88;;;;;;;;;;5038772;28;20268;-94
2023/09/17 09:03:36;;;;;;;784.10;751.30;;;;;;;;;;5048010;28;20180;-94
2023/09/17 09:06:03;;;;;;;756.88;725.38;;;;;;;;;;5043292;28;20204;-92
2023/09/17 09:08:37;;;;;;;836.78;800.38;;;;;;;;;;5042163;28;20192;-93
2023/09/17 09:11:06;;;;;;;1999.90;999.90;;;;;;;;;;5033327;28;20698;-93
2023/09/17 09:13:32;;;;;;;1999.90;999.90;;;;;;;;;;5024003;28;20181;-94
2023/09/17 09:16:00;;;;;;;1999.90;999.90;;;;;;;;;;5048198;28;20236;-93
2023/09/17 09:18:26;;;;;;;1999.90;999.90;;;;;;;;;;5032762;28;20209;-93
2023/09/17 09:20:53;;;;;;;1999.90;999.90;;;;;;;;;;5032988;28;20185;-94
2023/09/17 09:23:20;;;;;;;1999.90;999.90;;;;;;;;;;5036488;28;20678;-95
2023/09/17 09:25:47;;;;;;;1999.90;999.90;;;;;;;;;;5037716;28;20276;-95
2023/09/17 09:28:13;;;;;;;1999.90;999.90;;;;;;;;;;5032167;28;20216;-94
2023/09/17 09:30:42;;;;;;;1999.90;999.90;;;;;;;;;;5034701;28;21418;-93
2023/09/17 09:33:09;;;;;;;1999.90;999.90;;;;;;;;;;5034744;28;20199;-95
2023/09/17 09:35:37;;;;;;;1999.90;999.90;;;;;;;;;;5045632;28;20713;-93
2023/09/17 09:38:03;;;;;;;1999.90;999.90;;;;;;;;;;5031084;28;20196;-94
2023/09/17 09:40:37;;;;;;;1999.90;999.90;;;;;;;;;;5038877;28;20191;-94
2023/09/17 09:43:03;;;;;;;1999.90;999.90;;;;;;;;;;5047555;28;20188;-93
2023/09/17 09:45:29;;;;;;;1999.90;999.90;;;;;;;;;;5044217;28;20265;-95
2023/09/17 09:47:56;;;;;;;1999.90;999.90;;;;;;;;;;5047007;28;20189;-92
2023/09/17 09:50:36;;;;;;;1999.90;999.90;;;;;;;;;;5056278;28;20228;-94
2023/09/17 09:53:02;;;;;;;1999.90;999.90;;;;;;;;;;5107829;22;20218;-92
2023/09/17 09:55:28;;;;;;;1999.90;999.90;;;;;;;;;;5048174;28;20160;-91
2023/09/17 09:57:55;;;;;;;1999.90;999.90;;;;;;;;;;5038186;28;20249;-92
2023/09/17 10:00:29;;;;;;;1999.90;999.90;;;;;;;;;;5045355;22;20291;-93
2023/09/17 10:02:55;;;;;;;1999.90;999.90;;;;;;;;;;5023213;28;20178;-94
2023/09/17 10:05:39;;;;;;;1999.90;999.90;;;;;;;;;;5023857;28;20206;-92
2023/09/17 10:08:07;;;;;;;1999.90;999.90;;;;;;;;;;5010916;28;20245;-94
2023/09/17 10:10:33;;;;;;;1999.90;999.90;;;;;;;;;;5018255;28;20687;-93
2023/09/17 10:13:09;;;;;;;1999.90;999.90;;;;;;;;;;5008982;28;20183;-92
2023/09/17 10:15:36;;;;;;;1999.90;999.90;;;;;;;;;;5007140;28;20182;-93
2023/09/17 10:18:04;;;;;;;1999.90;999.90;;;;;;;;;;5023291;28;20186;-93
2023/09/17 10:20:31;;;;;;;1999.90;999.90;;;;;;;;;;5008765;28;20190;-94
2023/09/17 10:22:59;;;;;;;1999.90;999.90;;;;;;;;;;5023309;28;20186;-94
2023/09/17 10:25:27;;;;;;;1999.90;999.90;;;;;;;;;;5007562;28;20213;-92
2023/09/17 10:27:53;;;;;;;1999.90;999.90;;;;;;;;;;5020235;28;20226;-93
2023/09/17 10:30:20;;;;;;;1999.90;999.90;;;;;;;;;;5022139;28;20182;-93
2023/09/17 10:32:47;;;;;;;1999.90;999.90;;;;;;;;;;5021414;28;20245;-91
2023/09/17 10:35:16;;;;;;;1999.90;999.90;;;;;;;;;;5006177;28;20170;-93
2023/09/17 10:37:43;;;;;;;1999.90;999.90;;;;;;;;;;5018718;28;20185;-93
2023/09/17 10:40:10;;;;;;;1999.90;999.90;;;;;;;;;;5028715;28;20238;-93
2023/09/17 10:42:39;;;;;;;1999.90;999.90;;;;;;;;;;5011362;28;20208;-94
2023/09/17 10:45:10;;;;;;;1999.90;999.90;;;;;;;;;;5009276;28;20209;-94
2023/09/17 10:47:38;;;;;;;1999.90;999.90;;;;;;;;;;4990690;28;20245;-94
2023/09/17 10:50:04;;;;;;;1999.90;999.90;;;;;;;;;;4996817;28;20216;-93
2023/09/17 10:52:33;;;;;;;1999.90;999.90;;;;;;;;;;5025218;28;20188;-93
2023/09/17 10:55:00;;;;;;;1999.90;999.90;;;;;;;;;;5025944;28;20189;-95
2023/09/17 10:57:35;;;;;;;1999.90;999.90;;;;;;;;;;5024848;28;20198;-94
2023/09/17 11:00:03;;;;;;;1999.90;999.90;;;;;;;;;;5025175;28;20316;-94
2023/09/17 11:02:30;;;;;;;1999.90;999.90;;;;;;;;;;5030337;28;20185;-93
2023/09/17 11:04:57;;;;;;;1999.90;999.90;;;;;;;;;;5027254;28;20259;-94
2023/09/17 11:07:24;;;;;;;1999.90;999.90;;;;;;;;;;5028996;28;20169;-93
2023/09/17 11:09:50;;;;;;;1999.90;999.90;;;;;;;;;;5028015;28;20204;-94
2023/09/17 11:12:22;;;;;;;1999.90;999.90;;;;;;;;;;5029453;28;20189;-96
2023/09/17 11:14:48;;;;;;;1999.90;999.90;;;;;;;;;;4974090;28;20187;-94
2023/09/17 11:17:18;;;;;;;1999.90;999.90;;;;;;;;;;5030006;28;20198;-93
2023/09/17 11:19:44;;;;;;;1999.90;999.90;;;;;;;;;;5005796;28;20272;-92
2023/09/17 11:22:12;;;;;;;1999.90;999.90;;;;;;;;;;5014806;28;20194;-93
2023/09/17 11:24:39;;;;;;;1999.90;999.90;;;;;;;;;;5019063;28;20193;-95
2023/09/17 11:27:06;;;;;;;1999.90;999.90;;;;;;;;;;5015498;28;20182;-93
2023/09/17 11:29:39;;;;;;;1999.90;999.90;;;;;;;;;;5030005;28;20261;-92
2023/09/17 11:32:05;;;;;;;1999.90;999.90;;;;;;;;;;5030687;28;20192;-92
2023/09/17 11:34:31;;;;;;;1999.90;999.90;;;;;;;;;;5029695;28;20181;-94
2023/09/17 11:36:57;;;;;;;1999.90;999.90;;;;;;;;;;5027258;28;20186;-94
2023/09/17 11:39:24;;;;;;;1999.90;999.90;;;;;;;;;;5027181;28;20337;-94
2023/09/17 11:42:02;;;;;;;1999.90;999.90;;;;;;;;;;5010408;28;20192;-93
2023/09/17 11:44:31;;;;;;;1999.90;999.90;;;;;;;;;;5011975;28;20200;-94
2023/09/17 11:46:58;;;;;;;1999.90;999.90;;;;;;;;;;5016242;28;20193;-95
2023/09/17 11:49:24;;;;;;;1999.90;999.90;;;;;;;;;;5073775;23;20263;-92
2023/09/17 11:51:51;;;;;;;1999.90;999.90;;;;;;;;;;5074006;28;20219;-93
2023/09/17 11:54:23;;;;;;;1999.90;999.90;;;;;;;;;;5075906;28;20180;-93
2023/09/17 11:56:53;;;;;;;1999.90;999.90;;;;;;;;;;5075546;28;20293;-95
2023/09/17 11:59:20;;;;;;;1999.90;999.90;;;;;;;;;;5069905;28;20192;-94
2023/09/17 12:01:52;;;;;;;1999.90;999.90;;;;;;;;;;5071424;28;20245;-93
2023/09/17 12:04:19;;;;;;;1999.90;999.90;;;;;;;;;;5058726;28;20205;-93
2023/09/17 12:06:48;;;;;;;1999.90;999.90;;;;;;;;;;5047713;28;20709;-92
2023/09/17 12:11:57;;;;;;;1999.90;999.90;;;;;;;;;;5032199;28;20181;-94
2023/09/17 12:14:23;;;;;;;1999.90;999.90;;;;;;;;;;5041973;28;20177;-91
2023/09/17 12:16:50;;;;;;;1999.90;999.90;;;;;;;;;;5042286;28;20609;-93
2023/09/17 12:19:19;;;;;;;1999.90;999.90;;;;;;;;;;5042715;28;20205;-94
2023/09/17 12:21:48;;;;;;;1999.90;999.90;;;;;;;;;;5029669;28;20214;-91
2023/09/17 12:24:19;;;;;;;1999.90;999.90;;;;;;;;;;5061780;28;20196;-92
2023/09/17 12:27:08;;;;;;;1999.90;999.90;;;;;;;;;;5060794;28;20226;-93
2023/09/17 12:29:35;;;;;;;1999.90;999.90;;;;;;;;;;5059909;28;20193;-93
2023/09/17 12:32:02;;;;;;;1999.90;999.90;;;;;;;;;;5046651;28;20227;-92
2023/09/17 12:34:29;;;;;;;1999.90;999.90;;;;;;;;;;5046049;28;20192;-92
2023/09/17 12:36:55;;;;;;;1999.90;999.90;;;;;;;;;;5041187;28;20181;-96
2023/09/17 12:39:21;;;;;;;1999.90;999.90;;;;;;;;;;5037917;28;20240;-93
2023/09/17 12:41:47;;;;;;;1999.90;999.90;;;;;;;;;;5045277;28;20199;-96
2023/09/17 12:44:13;;;;;;;1999.90;999.90;;;;;;;;;;5041037;28;20236;-95
2023/09/17 12:46:39;;;;;;;1999.90;999.90;;;;;;;;;;5060505;28;20626;-94
2023/09/17 12:49:08;;;;;;;1999.90;999.90;;;;;;;;;;5052868;28;20217;-96
2023/09/17 12:51:38;;;;;;;1999.90;999.90;;;;;;;;;;5045253;28;20185;-94
2023/09/17 12:54:04;;;;;;;1999.90;999.90;;;;;;;;;;5049755;28;20192;-96
2023/09/17 12:56:32;;;;;;;1999.90;999.90;;;;;;;;;;5065327;28;20192;-95
2023/09/17 12:58:58;;;;;;;1999.90;999.90;;;;;;;;;;5048920;28;20258;-92
2023/09/17 13:01:24;;;;;;;1999.90;999.90;;;;;;;;;;5050294;28;20223;-96
2023/09/17 13:03:55;;;;;;;1999.90;999.90;;;;;;;;;;5062936;28;20376;-95
2023/09/17 13:06:23;;;;;;;1999.90;999.90;;;;;;;;;;5045497;28;20169;-93
2023/09/17 13:08:49;;;;;;;1999.90;999.90;;;;;;;;;;5041836;28;20590;-95
2023/09/17 13:11:15;;;;;;;1999.90;999.90;;;;;;;;;;5049480;28;20177;-95
2023/09/17 13:13:49;;;;;;;1999.90;999.90;;;;;;;;;;5044307;28;20184;-92
2023/09/17 13:16:19;;;;;;;1999.90;999.90;;;;;;;;;;5061411;28;20651;-93
2023/09/17 13:18:46;;;;;;;1999.90;999.90;;;;;;;;;;5031887;28;20306;-87
2023/09/17 13:21:13;;;;;;;1999.90;999.90;;;;;;;;;;5040825;28;20264;-87
2023/09/17 13:23:40;;;;;;;1999.90;999.90;;;;;;;;;;5041355;28;20199;-87
2023/09/17 13:26:07;;;;;;;1999.90;999.90;;;;;;;;;;5055555;28;20208;-94
2023/09/17 13:28:33;;;;;;;1999.90;999.90;;;;;;;;;;5063894;28;20204;-94
2023/09/17 13:31:03;;;;;;;1999.90;999.90;;;;;;;;;;5052318;28;20180;-96
2023/09/17 13:33:31;;;;;;;1999.90;999.90;;;;;;;;;;5042914;28;20176;-95
2023/09/17 13:35:58;;;;;;;1999.90;999.90;;;;;;;;;;5035478;28;20181;-95
2023/09/17 13:38:24;;;;;;;1999.90;999.90;;;;;;;;;;5046379;28;20209;-96
2023/09/17 13:40:51;;;;;;;1999.90;999.90;;;;;;;;;;5056100;28;20176;-93
2023/09/17 13:43:17;;;;;;;1999.90;999.90;;;;;;;;;;5053907;28;20179;-95
2023/09/17 13:46:10;;;;;;;1999.90;999.90;;;;;;;;;;5048878;28;20204;-95
2023/09/17 13:48:36;;;;;;;1999.90;999.90;;;;;;;;;;5054465;28;20243;-94
2023/09/17 13:51:01;;;;;;;1999.90;999.90;;;;;;;;;;5053067;28;20172;-95
2023/09/17 13:53:27;;;;;;;1999.90;999.90;;;;;;;;;;5048999;28;20200;-95
2023/09/17 13:55:55;;;;;;;1999.90;999.90;;;;;;;;;;5051062;28;20180;-95
2023/09/17 13:58:21;;;;;;;1999.90;999.90;;;;;;;;;;5058886;28;20227;-96
2023/09/17 14:00:48;;;;;;;1999.90;999.90;;;;;;;;;;5057483;28;20246;-94
2023/09/17 14:03:15;;;;;;;1999.90;999.90;;;;;;;;;;5063417;28;20175;-96
2023/09/17 14:05:42;;;;;;;1999.90;999.90;;;;;;;;;;5064917;28;20219;-96
2023/09/17 14:08:09;;;;;;;1999.90;999.90;;;;;;;;;;5058569;28;20172;-95